Time,TemperatureF,DewpointF,PressureIn,WindDirection,WindDirectionDegrees,WindSpeedMPH,WindSpeedGustMPH,Humidity,HourlyPrecipIn,Conditions,Clouds,dailyrainin,SolarRadiationWatts/m^2,SoftwareType,DateUTC
2013-03-04 00:00:00,47.3,45.7,29.76,SSW,212,4.5,8.5,94,0.00,,,-99.99,1.0,HOBO +U30 +Weather +,2013-03-04 08:00:00,
2013-03-04 00:05:00,47.2,45.7,29.76,SW,223,5.1,9.6,94,0.00,,,-99.99,1.0,HOBO +U30 +Weather +,2013-03-04 08:05:00,
2013-03-04 00:10:00,46.8,45.4,29.76,SW,218,8.5,13.4,94,0.00,,,-99.99,1.0,HOBO +U30 +Weather +,2013-03-04 08:10:00,
2013-03-04 00:15:00,46.7,45.3,29.76,SW,222,7.4,10.7,94,0.00,,,-99.99,1.0,HOBO +U30 +Weather +,2013-03-04 08:15:00,
2013-03-04 00:20:00,47.0,45.6,29.76,SW,229,5.1,9.6,94,0.00,,,-99.99,1.0,HOBO +U30 +Weather +,2013-03-04 08:20:00,
2013-03-04 00:25:00,47.0,45.6,29.76,SW,219,6.3,13.0,94,0.00,,,-99.99,1.0,HOBO +U30 +Weather +,2013-03-04 08:25:00,
2013-03-04 00:30:00,46.8,45.5,29.76,SW,222,6.7,13.0,94,0.00,,,-99.99,1.0,HOBO +U30 +Weather +,2013-03-04 08:30:00,
2013-03-04 00:35:00,46.7,45.4,29.76,SW,222,6.3,10.7,95,0.00,,,-99.99,1.0,HOBO +U30 +Weather +,2013-03-04 08:35:00,
2013-03-04 00:40:00,46.8,45.5,29.77,SW,227,4.5,8.9,95,0.00,,,-99.99,1.0,HOBO +U30 +Weather +,2013-03-04 08:40:00,
2013-03-04 00:45:00,46.8,45.5,29.76,SW,230,4.5,11.2,95,0.00,,,-99.99,1.0,HOBO +U30 +Weather +,2013-03-04 08:45:00,
2013-03-04 00:50:00,46.7,45.4,29.77,SW,225,7.4,14.5,95,0.00,,,-99.99,1.0,HOBO +U30 +Weather +,2013-03-04 08:50:00,
2013-03-04 00:55:00,46.6,45.4,29.76,SW,227,7.4,12.3,95,0.00,,,-99.99,1.0,HOBO +U30 +Weather +,2013-03-04 08:55:00,
2013-03-04 01:00:00,46.7,45.5,29.76,SW,226,6.7,12.3,95,0.00,,,-99.99,1.0,HOBO +U30 +Weather +,2013-03-04 09:00:00,
2013-03-04 01:05:00,46.8,45.6,29.77,SW,232,4.5,10.7,95,0.00,,,-99.99,1.0,HOBO +U30 +Weather +,2013-03-04 09:05:00,
2013-03-04 01:10:00,46.7,45.4,29.77,SW,230,4.5,8.9,95,0.00,,,-99.99,1.0,HOBO +U30 +Weather +,2013-03-04 09:10:00,
2013-03-04 01:15:00,46.8,45.6,29.77,SW,225,5.6,11.9,95,0.00,,,-99.99,1.0,HOBO +U30 +Weather +,2013-03-04 09:15:00,
2013-03-04 01:20:00,46.7,45.5,29.77,SW,227,6.7,12.3,95,0.00,,,-99.99,1.0,HOBO +U30 +Weather +,2013-03-04 09:20:00,
2013-03-04 01:25:00,46.8,45.6,29.77,SW,222,6.3,15.2,95,0.00,,,-99.99,1.0,HOBO +U30 +Weather +,2013-03-04 09:25:00,
2013-03-04 01:30:00,46.8,45.6,29.77,SW,225,4.5,8.9,95,0.00,,,-99.99,1.0,HOBO +U30 +Weather +,2013-03-04 09:30:00,
2013-03-04 01:35:00,46.9,45.7,29.77,SW,234,3.4,8.5,95,0.00,,,-99.99,1.0,HOBO +U30 +Weather +,2013-03-04 09:35:00,
2013-03-04 01:40:00,46.9,45.7,29.77,SW,234,1.1,4.5,95,0.00,,,-99.99,1.0,HOBO +U30 +Weather +,2013-03-04 09:40:00,
2013-03-04 01:45:00,47.0,45.8,29.77,SW,219,0.0,1.1,95,0.00,,,-99.99,1.0,HOBO +U30 +Weather +,2013-03-04 09:45:00,
2013-03-04 01:50:00,46.9,45.6,29.77,SW,216,1.1,5.1,95,0.00,,,-99.99,1.0,HOBO +U30 +Weather +,2013-03-04 09:50:00,
2013-03-04 01:55:00,46.9,45.6,29.77,SW,219,2.9,6.7,95,0.00,,,-99.99,1.0,HOBO +U30 +Weather +,2013-03-04 09:55:00,
2013-03-04 02:00:00,47.1,45.8,29.77,SW,219,2.2,4.5,95,0.00,,,-99.99,1.0,HOBO +U30 +Weather +,2013-03-04 10:00:00,
2013-03-04 02:05:00,47.1,45.8,29.77,SW,220,3.4,7.4,95,0.00,,,-99.99,1.0,HOBO +U30 +Weather +,2013-03-04 10:05:00,
2013-03-04 02:10:00,47.1,45.8,29.77,SW,226,3.4,6.7,95,0.00,,,-99.99,1.0,HOBO +U30 +Weather +,2013-03-04 10:10:00,
2013-03-04 02:15:00,47.1,45.8,29.77,SW,223,4.0,8.5,95,0.00,,,-99.99,1.0,HOBO +U30 +Weather +,2013-03-04 10:15:00,
2013-03-04 02:20:00,47.0,45.7,29.77,SW,222,2.9,5.1,95,0.00,,,-99.99,1.0,HOBO +U30 +Weather +,2013-03-04 10:20:00,
2013-03-04 02:25:00,47.0,45.7,29.77,SW,220,2.9,5.6,95,0.00,,,-99.99,1.0,HOBO +U30 +Weather +,2013-03-04 10:25:00,
2013-03-04 02:30:00,47.0,45.7,29.77,SW,232,1.1,7.4,95,0.00,,,-99.99,1.0,HOBO +U30 +Weather +,2013-03-04 10:30:00,
2013-03-04 02:35:00,46.9,45.5,29.77,SW,236,0.7,4.0,95,0.00,,,-99.99,1.0,HOBO +U30 +Weather +,2013-03-04 10:35:00,
2013-03-04 02:40:00,46.8,45.5,29.77,SW,232,2.9,6.3,95,0.00,,,-99.99,1.0,HOBO +U30 +Weather +,2013-03-04 10:40:00,
2013-03-04 02:45:00,46.7,45.5,29.78,SW,226,4.0,7.8,95,0.00,,,-99.99,1.0,HOBO +U30 +Weather +,2013-03-04 10:45:00,
2013-03-04 02:50:00,46.7,45.6,29.77,SW,219,2.9,5.6,95,0.00,,,-99.99,1.0,HOBO +U30 +Weather +,2013-03-04 10:50:00,
2013-03-04 02:55:00,46.9,45.8,29.78,SW,216,3.4,7.4,95,0.00,,,-99.99,1.0,HOBO +U30 +Weather +,2013-03-04 10:55:00,
2013-03-04 03:00:00,46.8,45.6,29.78,SW,218,5.1,9.6,95,0.00,,,-99.99,1.0,HOBO +U30 +Weather +,2013-03-04 11:00:00,
2013-03-04 03:05:00,46.7,45.5,29.78,SW,220,6.3,10.1,95,0.00,,,-99.99,1.0,HOBO +U30 +Weather +,2013-03-04 11:05:00,
2013-03-04 03:10:00,46.7,45.6,29.78,SW,220,6.3,13.0,95,0.00,,,-99.99,1.0,HOBO +U30 +Weather +,2013-03-04 11:10:00,
2013-03-04 03:15:00,46.7,45.6,29.78,SW,227,5.1,9.6,95,0.00,,,-99.99,1.0,HOBO +U30 +Weather +,2013-03-04 11:15:00,
2013-03-04 03:20:00,46.7,45.6,29.77,SW,229,3.4,8.9,96,0.00,,,-99.99,1.0,HOBO +U30 +Weather +,2013-03-04 11:20:00,
2013-03-04 03:25:00,46.7,45.6,29.77,SW,225,4.0,8.9,96,0.00,,,-99.99,1.0,HOBO +U30 +Weather +,2013-03-04 11:25:00,
2013-03-04 03:30:00,46.6,45.6,29.77,SW,220,4.0,9.6,96,0.00,,,-99.99,1.0,HOBO +U30 +Weather +,2013-03-04 11:30:00,
2013-03-04 03:35:00,46.6,45.5,29.77,SW,223,5.1,10.1,96,0.00,,,-99.99,1.0,HOBO +U30 +Weather +,2013-03-04 11:35:00,
2013-03-04 03:40:00,46.7,45.7,29.77,SW,222,4.5,8.5,96,0.00,,,-99.99,1.0,HOBO +U30 +Weather +,2013-03-04 11:40:00,
2013-03-04 03:45:00,46.7,45.8,29.77,SW,220,6.3,11.2,96,0.00,,,-99.99,1.0,HOBO +U30 +Weather +,2013-03-04 11:45:00,
2013-03-04 03:50:00,46.7,45.7,29.78,SW,225,5.1,10.7,96,0.00,,,-99.99,1.0,HOBO +U30 +Weather +,2013-03-04 11:50:00,
2013-03-04 03:55:00,46.7,45.8,29.77,SW,225,4.0,8.5,96,0.00,,,-99.99,1.0,HOBO +U30 +Weather +,2013-03-04 11:55:00,
2013-03-04 04:00:00,46.3,45.4,29.78,SW,225,6.3,11.9,96,0.00,,,-99.99,1.0,HOBO +U30 +Weather +,2013-03-04 12:00:00,
2013-03-04 04:05:00,46.3,45.4,29.77,SW,225,6.3,11.2,96,0.00,,,-99.99,1.0,HOBO +U30 +Weather +,2013-03-04 12:05:00,
2013-03-04 04:10:00,46.3,45.4,29.77,SW,226,7.8,12.3,96,0.00,,,-99.99,1.0,HOBO +U30 +Weather +,2013-03-04 12:10:00,
2013-03-04 04:15:00,46.4,45.5,29.77,SW,220,5.6,10.1,96,0.00,,,-99.99,1.0,HOBO +U30 +Weather +,2013-03-04 12:15:00,
2013-03-04 04:20:00,46.4,45.5,29.78,SW,225,4.5,8.5,96,0.00,,,-99.99,1.0,HOBO +U30 +Weather +,2013-03-04 12:20:00,
2013-03-04 04:25:00,46.3,45.4,29.78,SW,225,5.1,9.6,96,0.00,,,-99.99,1.0,HOBO +U30 +Weather +,2013-03-04 12:25:00,
2013-03-04 04:30:00,46.2,45.2,29.78,SW,234,5.6,10.1,96,0.00,,,-99.99,1.0,HOBO +U30 +Weather +,2013-03-04 12:30:00,
2013-03-04 04:35:00,46.2,45.3,29.78,WSW,237,2.2,7.4,96,0.00,,,-99.99,1.0,HOBO +U30 +Weather +,2013-03-04 12:35:00,
2013-03-04 04:40:00,46.3,45.4,29.78,SW,227,3.4,8.5,96,0.00,,,-99.99,1.0,HOBO +U30 +Weather +,2013-03-04 12:40:00,
2013-03-04 04:45:00,46.1,45.2,29.78,SW,226,6.3,11.2,96,0.00,,,-99.99,1.0,HOBO +U30 +Weather +,2013-03-04 12:45:00,
2013-03-04 04:50:00,46.1,45.2,29.78,SW,225,5.1,10.7,96,0.00,,,-99.99,1.0,HOBO +U30 +Weather +,2013-03-04 12:50:00,
2013-03-04 04:55:00,46.1,45.2,29.78,SW,226,5.6,10.1,96,0.00,,,-99.99,1.0,HOBO +U30 +Weather +,2013-03-04 12:55:00,
2013-03-04 05:00:00,46.1,45.2,29.78,SW,232,4.0,7.8,96,0.00,,,-99.99,1.0,HOBO +U30 +Weather +,2013-03-04 13:00:00,
2013-03-04 05:05:00,45.9,45.0,29.78,WSW,248,2.9,7.8,96,0.00,,,-99.99,1.0,HOBO +U30 +Weather +,2013-03-04 13:05:00,
2013-03-04 05:10:00,45.8,45.0,29.78,SW,236,4.0,7.8,96,0.00,,,-99.99,1.0,HOBO +U30 +Weather +,2013-03-04 13:10:00,
2013-03-04 05:15:00,45.9,45.1,29.78,SSW,213,2.2,6.7,97,0.00,,,-99.99,1.0,HOBO +U30 +Weather +,2013-03-04 13:15:00,
2013-03-04 05:20:00,45.9,45.1,29.79,SW,223,1.8,5.1,97,0.00,,,-99.99,1.0,HOBO +U30 +Weather +,2013-03-04 13:20:00,
2013-03-04 05:25:00,45.9,45.1,29.79,SW,236,2.9,8.5,97,0.00,,,-99.99,1.0,HOBO +U30 +Weather +,2013-03-04 13:25:00,
2013-03-04 05:30:00,45.8,45.0,29.78,SW,225,4.5,8.9,97,0.00,,,-99.99,1.0,HOBO +U30 +Weather +,2013-03-04 13:30:00,
2013-03-04 05:35:00,45.9,45.2,29.78,SW,227,3.4,7.4,97,0.00,,,-99.99,1.0,HOBO +U30 +Weather +,2013-03-04 13:35:00,
2013-03-04 05:40:00,45.8,45.2,29.79,SW,222,2.9,6.7,97,0.00,,,-99.99,1.0,HOBO +U30 +Weather +,2013-03-04 13:40:00,
2013-03-04 05:45:00,45.8,45.2,29.79,SW,230,4.5,8.5,97,0.00,,,-99.99,1.0,HOBO +U30 +Weather +,2013-03-04 13:45:00,
2013-03-04 05:50:00,45.8,45.2,29.79,SW,230,5.1,10.7,97,0.00,,,-99.99,1.0,HOBO +U30 +Weather +,2013-03-04 13:50:00,
2013-03-04 05:55:00,45.7,45.0,29.79,WSW,241,1.1,6.3,97,0.00,,,-99.99,1.0,HOBO +U30 +Weather +,2013-03-04 13:55:00,
2013-03-04 06:00:00,45.6,45.0,29.79,WSW,248,2.2,8.5,97,0.00,,,-99.99,1.0,HOBO +U30 +Weather +,2013-03-04 14:00:00,
2013-03-04 06:05:00,45.6,45.0,29.79,SW,232,2.2,4.5,97,0.00,,,-99.99,1.0,HOBO +U30 +Weather +,2013-03-04 14:05:00,
2013-03-04 06:10:00,45.8,45.2,29.79,SW,226,5.1,9.6,97,0.00,,,-99.99,1.0,HOBO +U30 +Weather +,2013-03-04 14:10:00,
2013-03-04 06:15:00,45.7,45.0,29.79,WSW,243,3.4,9.6,97,0.00,,,-99.99,1.0,HOBO +U30 +Weather +,2013-03-04 14:15:00,
2013-03-04 06:20:00,45.6,45.0,29.79,WSW,251,2.2,5.6,97,0.00,,,-99.99,1.0,HOBO +U30 +Weather +,2013-03-04 14:20:00,
2013-03-04 06:25:00,45.7,45.1,29.79,West,270,1.8,6.3,97,0.00,,,-99.99,1.0,HOBO +U30 +Weather +,2013-03-04 14:25:00,
2013-03-04 06:30:00,45.6,45.0,29.79,SW,230,2.2,5.1,97,0.00,,,-99.99,1.0,HOBO +U30 +Weather +,2013-03-04 14:30:00,
2013-03-04 06:35:00,45.7,45.0,29.79,SW,230,0.7,6.7,97,0.00,,,-99.99,1.0,HOBO +U30 +Weather +,2013-03-04 14:35:00,
2013-03-04 06:40:00,45.6,44.9,29.79,WNW,291,0.7,4.5,97,0.00,,,-99.99,2.0,HOBO +U30 +Weather +,2013-03-04 14:40:00,
2013-03-04 06:45:00,45.5,44.7,29.79,WSW,251,1.8,6.3,97,0.00,,,-99.99,4.0,HOBO +U30 +Weather +,2013-03-04 14:45:00,
2013-03-04 06:50:00,45.5,44.8,29.80,SW,222,1.8,5.1,97,0.00,,,-99.99,4.0,HOBO +U30 +Weather +,2013-03-04 14:50:00,
2013-03-04 06:55:00,45.7,45.0,29.80,SW,230,2.9,5.6,97,0.00,,,-99.99,6.0,HOBO +U30 +Weather +,2013-03-04 14:55:00,
2013-03-04 07:00:00,45.9,45.3,29.80,SW,230,1.1,6.7,97,0.00,,,-99.99,8.0,HOBO +U30 +Weather +,2013-03-04 15:00:00,
2013-03-04 08:00:00,46.2,45.3,29.81,WSW,250,1.8,6.3,96,0.00,,,-99.99,36.0,HOBO +U30 +Weather +,2013-03-04 16:00:00,
2013-03-04 08:05:00,46.3,45.4,29.82,SW,227,4.5,11.9,96,0.00,,,-99.99,36.0,HOBO +U30 +Weather +,2013-03-04 16:05:00,
2013-03-04 08:10:00,46.4,45.4,29.82,WSW,241,2.2,11.9,96,0.00,,,-99.99,39.0,HOBO +U30 +Weather +,2013-03-04 16:10:00,
2013-03-04 08:15:00,46.3,45.3,29.82,SW,234,3.4,10.1,96,0.00,,,-99.99,52.0,HOBO +U30 +Weather +,2013-03-04 16:15:00,
2013-03-04 08:20:00,46.4,45.3,29.82,West,263,2.2,6.7,95,0.00,,,-99.99,59.0,HOBO +U30 +Weather +,2013-03-04 16:20:00,
2013-03-04 08:25:00,46.4,45.3,29.82,WSW,251,2.9,8.9,95,0.00,,,-99.99,61.0,HOBO +U30 +Weather +,2013-03-04 16:25:00,
2013-03-04 08:30:00,46.7,45.5,29.82,SW,233,3.4,6.3,95,0.00,,,-99.99,71.0,HOBO +U30 +Weather +,2013-03-04 16:30:00,
2013-03-04 08:35:00,46.7,45.4,29.81,SW,223,4.5,10.7,94,0.00,,,-99.99,72.0,HOBO +U30 +Weather +,2013-03-04 16:35:00,
2013-03-04 08:40:00,46.9,45.5,29.82,SW,234,2.2,7.4,94,0.00,,,-99.99,71.0,HOBO +U30 +Weather +,2013-03-04 16:40:00,
2013-03-04 08:45:00,46.9,45.4,29.82,SW,225,3.4,6.7,94,0.00,,,-99.99,78.0,HOBO +U30 +Weather +,2013-03-04 16:45:00,
2013-03-04 08:50:00,46.9,45.4,29.82,SW,232,2.9,8.5,94,0.00,,,-99.99,74.0,HOBO +U30 +Weather +,2013-03-04 16:50:00,
2013-03-04 08:55:00,46.8,45.3,29.82,SW,234,4.0,11.2,94,0.00,,,-99.99,89.0,HOBO +U30 +Weather +,2013-03-04 16:55:00,
2013-03-04 09:00:00,47.0,45.6,29.82,WSW,257,1.1,5.1,94,0.00,,,-99.99,92.0,HOBO +U30 +Weather +,2013-03-04 17:00:00,
2013-03-04 09:05:00,47.0,45.5,29.82,WSW,237,1.1,5.6,94,0.00,,,-99.99,106.0,HOBO +U30 +Weather +,2013-03-04 17:05:00,
2013-03-04 09:10:00,47.2,45.6,29.83,SW,223,1.8,6.3,93,0.00,,,-99.99,111.0,HOBO +U30 +Weather +,2013-03-04 17:10:00,
2013-03-04 09:15:00,47.1,45.2,29.83,SW,230,2.9,6.3,93,0.00,,,-99.99,106.0,HOBO +U30 +Weather +,2013-03-04 17:15:00,
2013-03-04 09:20:00,47.2,45.4,29.83,SW,234,4.0,9.6,93,0.00,,,-99.99,112.0,HOBO +U30 +Weather +,2013-03-04 17:20:00,
2013-03-04 10:00:00,48.1,45.8,29.83,SW,233,1.1,5.6,91,0.00,,,-99.99,183.0,HOBO +U30 +Weather +,2013-03-04 18:00:00,
2013-03-04 10:25:00,48.5,45.9,29.82,WSW,239,1.1,6.3,90,0.00,,,-99.99,173.0,HOBO +U30 +Weather +,2013-03-04 18:25:00,
2013-03-04 10:30:00,48.2,45.5,29.82,WSW,244,1.8,5.1,90,0.00,,,-99.99,187.0,HOBO +U30 +Weather +,2013-03-04 18:30:00,
2013-03-04 10:40:00,48.8,45.7,29.82,SW,236,2.2,6.7,88,0.00,,,-99.99,218.0,HOBO +U30 +Weather +,2013-03-04 18:40:00,
2013-03-04 11:00:00,49.1,45.8,29.82,SW,236,4.5,7.8,88,0.00,,,-99.99,283.0,HOBO +U30 +Weather +,2013-03-04 19:00:00,
2013-03-04 11:05:00,49.0,45.3,29.83,WSW,244,4.0,8.5,87,0.00,,,-99.99,269.0,HOBO +U30 +Weather +,2013-03-04 19:05:00,
2013-03-04 11:10:00,49.8,46.1,29.83,SW,223,1.1,4.5,86,0.00,,,-99.99,276.0,HOBO +U30 +Weather +,2013-03-04 19:10:00,
2013-03-04 11:15:00,49.8,45.8,29.83,SW,236,2.9,7.4,85,0.00,,,-99.99,281.0,HOBO +U30 +Weather +,2013-03-04 19:15:00,
2013-03-04 11:20:00,49.4,45.4,29.83,SW,236,2.2,7.4,85,0.00,,,-99.99,271.0,HOBO +U30 +Weather +,2013-03-04 19:20:00,
2013-03-04 11:25:00,49.5,45.6,29.83,WSW,237,4.5,9.6,86,0.00,,,-99.99,281.0,HOBO +U30 +Weather +,2013-03-04 19:25:00,
2013-03-04 11:30:00,49.9,45.8,29.83,SW,225,4.5,8.5,85,0.00,,,-99.99,261.0,HOBO +U30 +Weather +,2013-03-04 19:30:00,
2013-03-04 11:35:00,49.5,45.6,29.83,WSW,240,4.0,8.5,86,0.00,,,-99.99,262.0,HOBO +U30 +Weather +,2013-03-04 19:35:00,
2013-03-04 11:40:00,49.4,45.4,29.83,SW,234,4.5,8.5,85,0.00,,,-99.99,276.0,HOBO +U30 +Weather +,2013-03-04 19:40:00,
2013-03-04 11:45:00,50.0,45.9,29.83,SW,230,4.0,7.8,85,0.00,,,-99.99,289.0,HOBO +U30 +Weather +,2013-03-04 19:45:00,
2013-03-04 11:50:00,50.4,45.9,29.83,SW,223,3.4,8.9,84,0.00,,,-99.99,308.0,HOBO +U30 +Weather +,2013-03-04 19:50:00,
2013-03-04 11:55:00,50.5,45.8,29.83,SW,225,4.0,11.2,84,0.00,,,-99.99,312.0,HOBO +U30 +Weather +,2013-03-04 19:55:00,
2013-03-04 12:00:00,50.0,45.3,29.82,SW,232,5.1,12.3,83,0.00,,,-99.99,322.0,HOBO +U30 +Weather +,2013-03-04 20:00:00,
2013-03-04 13:00:00,53.3,46.2,29.80,SW,222,6.3,10.7,76,0.00,,,-99.99,682.0,HOBO +U30 +Weather +,2013-03-04 21:00:00,
2013-03-04 13:05:00,52.7,45.5,29.79,SW,223,6.7,10.7,76,0.00,,,-99.99,666.0,HOBO +U30 +Weather +,2013-03-04 21:05:00,
2013-03-04 13:10:00,54.7,47.2,29.79,SSW,202,2.2,5.6,75,0.00,,,-99.99,704.0,HOBO +U30 +Weather +,2013-03-04 21:10:00,
2013-03-04 13:15:00,56.0,47.5,29.79,SW,220,2.9,7.4,73,0.00,,,-99.99,649.0,HOBO +U30 +Weather +,2013-03-04 21:15:00,
2013-03-04 13:20:00,54.6,46.1,29.78,SW,215,4.0,10.1,72,0.00,,,-99.99,617.0,HOBO +U30 +Weather +,2013-03-04 21:20:00,
2013-03-04 13:25:00,54.6,46.6,29.78,SW,229,5.1,10.7,74,0.00,,,-99.99,616.0,HOBO +U30 +Weather +,2013-03-04 21:25:00,
2013-03-04 13:30:00,53.9,45.6,29.78,SW,222,4.0,8.5,73,0.00,,,-99.99,612.0,HOBO +U30 +Weather +,2013-03-04 21:30:00,
2013-03-04 13:35:00,53.2,45.4,29.78,SW,223,5.6,10.7,74,0.00,,,-99.99,604.0,HOBO +U30 +Weather +,2013-03-04 21:35:00,
2013-03-04 13:40:00,55.5,47.3,29.77,SW,220,3.4,6.7,73,0.00,,,-99.99,601.0,HOBO +U30 +Weather +,2013-03-04 21:40:00,
2013-03-04 13:45:00,54.1,45.5,29.77,SW,222,5.1,10.1,72,0.00,,,-99.99,593.0,HOBO +U30 +Weather +,2013-03-04 21:45:00,
2013-03-04 13:50:00,55.1,46.0,29.77,SW,219,4.5,7.8,71,0.00,,,-99.99,589.0,HOBO +U30 +Weather +,2013-03-04 21:50:00,
2013-03-04 13:55:00,54.6,45.9,29.77,SSW,206,5.1,8.9,72,0.00,,,-99.99,579.0,HOBO +U30 +Weather +,2013-03-04 21:55:00,
2013-03-04 14:00:00,55.9,46.4,29.76,SW,226,3.4,7.8,70,0.00,,,-99.99,573.0,HOBO +U30 +Weather +,2013-03-04 22:00:00,
2013-03-04 14:05:00,54.3,45.0,29.76,SW,232,5.6,10.1,70,0.00,,,-99.99,564.0,HOBO +U30 +Weather +,2013-03-04 22:05:00,
2013-03-04 14:10:00,55.3,46.5,29.76,SW,233,5.6,11.2,71,0.00,,,-99.99,557.0,HOBO +U30 +Weather +,2013-03-04 22:10:00,
2013-03-04 14:15:00,55.2,45.4,29.75,SSW,201,5.1,10.1,69,0.00,,,-99.99,552.0,HOBO +U30 +Weather +,2013-03-04 22:15:00,
2013-03-04 14:20:00,54.3,44.7,29.75,SW,225,6.7,10.7,69,0.00,,,-99.99,542.0,HOBO +U30 +Weather +,2013-03-04 22:20:00,
2013-03-04 14:25:00,54.9,45.6,29.76,SW,218,5.6,9.6,70,0.00,,,-99.99,532.0,HOBO +U30 +Weather +,2013-03-04 22:25:00,
2013-03-04 14:30:00,54.0,45.1,29.77,SW,230,6.7,11.9,71,0.00,,,-99.99,509.0,HOBO +U30 +Weather +,2013-03-04 22:30:00,
2013-03-04 14:35:00,51.9,43.9,29.77,SW,229,8.9,14.1,74,0.00,,,-99.99,428.0,HOBO +U30 +Weather +,2013-03-04 22:35:00,
2013-03-04 14:40:00,52.9,45.1,29.77,SW,220,7.8,14.5,74,0.00,,,-99.99,407.0,HOBO +U30 +Weather +,2013-03-04 22:40:00,
2013-03-04 14:45:00,52.8,45.2,29.77,SW,233,6.3,11.9,75,0.00,,,-99.99,406.0,HOBO +U30 +Weather +,2013-03-04 22:45:00,
2013-03-04 14:50:00,52.1,44.7,29.77,WSW,253,4.5,10.7,75,0.00,,,-99.99,314.0,HOBO +U30 +Weather +,2013-03-04 22:50:00,
2013-03-04 14:55:00,50.7,43.8,29.77,WSW,237,7.4,18.1,77,0.00,,,-99.99,336.0,HOBO +U30 +Weather +,2013-03-04 22:55:00,
2013-03-04 15:00:00,50.5,44.0,29.77,WSW,240,7.8,15.9,78,0.00,,,-99.99,427.0,HOBO +U30 +Weather +,2013-03-04 23:00:00,
2013-03-04 15:05:00,50.2,43.8,29.77,SW,234,10.1,17.4,78,0.00,,,-99.99,311.0,HOBO +U30 +Weather +,2013-03-04 23:05:00,
2013-03-04 15:10:00,51.0,44.6,29.77,WSW,241,8.5,18.1,78,0.00,,,-99.99,434.0,HOBO +U30 +Weather +,2013-03-04 23:10:00,
2013-03-04 15:15:00,50.1,43.8,29.77,SW,234,10.1,18.1,78,0.00,,,-99.99,304.0,HOBO +U30 +Weather +,2013-03-04 23:15:00,
2013-03-04 15:20:00,49.7,43.7,29.77,SW,233,10.1,16.3,79,0.00,,,-99.99,444.0,HOBO +U30 +Weather +,2013-03-04 23:20:00,
2013-03-04 15:25:00,49.7,43.7,29.76,SW,236,10.7,18.6,79,0.00,,,-99.99,374.0,HOBO +U30 +Weather +,2013-03-04 23:25:00,
2013-03-04 15:30:00,49.9,43.8,29.76,SW,233,11.9,19.2,79,0.00,,,-99.99,399.0,HOBO +U30 +Weather +,2013-03-04 23:30:00,
2013-03-04 15:35:00,50.6,44.2,29.76,SW,236,10.1,23.0,78,0.00,,,-99.99,384.0,HOBO +U30 +Weather +,2013-03-04 23:35:00,
2013-03-04 15:40:00,51.1,44.4,29.76,WSW,237,7.8,14.5,77,0.00,,,-99.99,369.0,HOBO +U30 +Weather +,2013-03-04 23:40:00,
2013-03-04 15:45:00,50.5,43.8,29.76,SW,232,8.5,16.3,77,0.00,,,-99.99,358.0,HOBO +U30 +Weather +,2013-03-04 23:45:00,
2013-03-04 15:50:00,50.9,44.1,29.75,WSW,241,7.4,17.4,77,0.00,,,-99.99,344.0,HOBO +U30 +Weather +,2013-03-04 23:50:00,
2013-03-04 15:55:00,50.6,44.0,29.76,SW,236,8.5,14.5,77,0.00,,,-99.99,332.0,HOBO +U30 +Weather +,2013-03-04 23:55:00,
2013-03-04 16:00:00,50.1,43.6,29.75,SW,233,9.6,15.9,78,0.00,,,-99.99,318.0,HOBO +U30 +Weather +,2013-03-05 00:00:00,
2013-03-04 16:05:00,49.4,43.1,29.75,SW,233,11.9,19.2,78,0.00,,,-99.99,304.0,HOBO +U30 +Weather +,2013-03-05 00:05:00,
2013-03-04 16:10:00,49.9,43.6,29.75,WSW,237,9.6,15.2,78,0.00,,,-99.99,291.0,HOBO +U30 +Weather +,2013-03-05 00:10:00,
2013-03-04 16:15:00,50.3,44.0,29.75,SW,232,7.8,14.1,78,0.00,,,-99.99,276.0,HOBO +U30 +Weather +,2013-03-05 00:15:00,
2013-03-04 16:20:00,50.0,43.4,29.75,SW,234,8.5,15.9,78,0.00,,,-99.99,262.0,HOBO +U30 +Weather +,2013-03-05 00:20:00,
2013-03-04 16:25:00,50.1,43.6,29.75,SW,233,7.8,15.9,78,0.00,,,-99.99,249.0,HOBO +U30 +Weather +,2013-03-05 00:25:00,
2013-03-04 16:35:00,50.4,43.9,29.75,SW,232,6.3,12.3,78,0.00,,,-99.99,223.0,HOBO +U30 +Weather +,2013-03-05 00:35:00,
2013-03-04 16:45:00,49.6,43.2,29.75,SW,230,7.8,13.0,78,0.00,,,-99.99,197.0,HOBO +U30 +Weather +,2013-03-05 00:45:00,
2013-03-04 17:10:00,49.4,43.7,29.75,WSW,237,5.6,11.9,80,0.00,,,-99.99,123.0,HOBO +U30 +Weather +,2013-03-05 01:10:00,
2013-03-04 17:15:00,48.8,43.1,29.75,SW,229,7.4,13.4,80,0.00,,,-99.99,109.0,HOBO +U30 +Weather +,2013-03-05 01:15:00,
2013-03-04 17:20:00,48.4,43.0,29.75,SW,233,8.5,13.4,81,0.00,,,-99.99,94.0,HOBO +U30 +Weather +,2013-03-05 01:20:00,
2013-03-04 17:25:00,48.7,43.5,29.75,SW,232,7.8,13.0,82,0.00,,,-99.99,78.0,HOBO +U30 +Weather +,2013-03-05 01:25:00,
2013-03-04 17:30:00,48.3,43.1,29.75,SW,233,7.8,13.0,82,0.00,,,-99.99,62.0,HOBO +U30 +Weather +,2013-03-05 01:30:00,
2013-03-04 17:35:00,48.2,43.2,29.75,SW,234,6.7,11.2,82,0.00,,,-99.99,48.0,HOBO +U30 +Weather +,2013-03-05 01:35:00,
2013-03-04 17:40:00,47.7,42.9,29.75,SW,232,8.5,14.1,83,0.00,,,-99.99,34.0,HOBO +U30 +Weather +,2013-03-05 01:40:00,
2013-03-04 17:45:00,47.6,43.0,29.75,SW,236,7.4,13.0,83,0.00,,,-99.99,21.0,HOBO +U30 +Weather +,2013-03-05 01:45:00,
2013-03-04 17:50:00,47.6,43.1,29.75,SW,233,7.8,13.0,84,0.00,,,-99.99,16.0,HOBO +U30 +Weather +,2013-03-05 01:50:00,
2013-03-04 17:55:00,47.5,43.0,29.75,SW,232,7.4,13.4,84,0.00,,,-99.99,12.0,HOBO +U30 +Weather +,2013-03-05 01:55:00,
2013-03-04 18:10:00,47.2,42.8,29.75,SW,234,8.5,13.4,84,0.00,,,-99.99,2.0,HOBO +U30 +Weather +,2013-03-05 02:10:00,
2013-03-04 18:15:00,47.1,42.8,29.74,SW,234,7.8,13.4,84,0.00,,,-99.99,1.0,HOBO +U30 +Weather +,2013-03-05 02:15:00,
2013-03-04 18:20:00,47.1,42.8,29.74,SW,229,7.4,14.1,85,0.00,,,-99.99,1.0,HOBO +U30 +Weather +,2013-03-05 02:20:00,
2013-03-04 18:25:00,47.0,42.9,29.74,SW,232,7.8,12.3,85,0.00,,,-99.99,1.0,HOBO +U30 +Weather +,2013-03-05 02:25:00,
2013-03-04 18:30:00,46.9,42.8,29.74,SW,233,8.5,14.1,85,0.00,,,-99.99,1.0,HOBO +U30 +Weather +,2013-03-05 02:30:00,
2013-03-04 18:35:00,46.9,42.9,29.74,SW,233,6.3,13.4,85,0.00,,,-99.99,1.0,HOBO +U30 +Weather +,2013-03-05 02:35:00,
2013-03-04 18:40:00,46.8,42.9,29.74,SW,232,7.8,14.1,86,0.00,,,-99.99,1.0,HOBO +U30 +Weather +,2013-03-05 02:40:00,
2013-03-04 18:45:00,46.8,43.0,29.74,SW,234,7.4,11.2,86,0.00,,,-99.99,1.0,HOBO +U30 +Weather +,2013-03-05 02:45:00,
2013-03-04 18:50:00,46.8,43.1,29.74,SW,230,7.8,12.3,86,0.00,,,-99.99,1.0,HOBO +U30 +Weather +,2013-03-05 02:50:00,
2013-03-04 18:55:00,46.7,43.0,29.74,SW,232,7.8,14.1,86,0.00,,,-99.99,1.0,HOBO +U30 +Weather +,2013-03-05 02:55:00,
2013-03-04 19:00:00,46.7,43.0,29.74,SW,230,7.8,13.0,86,0.00,,,-99.99,1.0,HOBO +U30 +Weather +,2013-03-05 03:00:00,
2013-03-04 19:05:00,46.7,42.9,29.74,SW,230,7.4,11.9,86,0.00,,,-99.99,1.0,HOBO +U30 +Weather +,2013-03-05 03:05:00,
2013-03-04 19:10:00,46.6,42.8,29.74,SW,236,6.3,10.7,86,0.00,,,-99.99,1.0,HOBO +U30 +Weather +,2013-03-05 03:10:00,
2013-03-04 19:15:00,46.5,42.8,29.74,SW,232,7.4,13.0,86,0.00,,,-99.99,1.0,HOBO +U30 +Weather +,2013-03-05 03:15:00,
2013-03-04 19:20:00,46.5,42.8,29.74,SW,232,7.4,11.2,86,0.00,,,-99.99,1.0,HOBO +U30 +Weather +,2013-03-05 03:20:00,
2013-03-04 19:25:00,46.5,42.9,29.74,SW,227,6.3,10.7,87,0.00,,,-99.99,1.0,HOBO +U30 +Weather +,2013-03-05 03:25:00,
2013-03-04 19:30:00,46.4,42.8,29.74,SW,227,5.6,10.7,87,0.00,,,-99.99,1.0,HOBO +U30 +Weather +,2013-03-05 03:30:00,
2013-03-04 19:35:00,46.3,42.7,29.74,SW,227,5.1,8.9,86,0.00,,,-99.99,1.0,HOBO +U30 +Weather +,2013-03-05 03:35:00,
2013-03-04 19:40:00,46.3,42.8,29.74,SW,226,5.6,9.6,87,0.00,,,-99.99,1.0,HOBO +U30 +Weather +,2013-03-05 03:40:00,
2013-03-04 19:45:00,46.3,42.8,29.74,SW,230,4.0,10.7,87,0.00,,,-99.99,1.0,HOBO +U30 +Weather +,2013-03-05 03:45:00,
2013-03-04 19:50:00,46.3,42.9,29.74,SW,220,5.6,10.7,87,0.00,,,-99.99,1.0,HOBO +U30 +Weather +,2013-03-05 03:50:00,
2013-03-04 19:55:00,46.3,42.9,29.74,SW,226,5.1,9.6,87,0.00,,,-99.99,1.0,HOBO +U30 +Weather +,2013-03-05 03:55:00,
2013-03-04 20:00:00,46.3,42.8,29.74,SW,227,5.6,8.9,87,0.00,,,-99.99,1.0,HOBO +U30 +Weather +,2013-03-05 04:00:00,
2013-03-04 20:05:00,46.3,43.0,29.74,SW,232,5.1,10.1,88,0.00,,,-99.99,1.0,HOBO +U30 +Weather +,2013-03-05 04:05:00,
2013-03-04 20:10:00,46.3,42.9,29.74,SW,234,5.6,11.2,88,0.00,,,-99.99,1.0,HOBO +U30 +Weather +,2013-03-05 04:10:00,
2013-03-04 20:15:00,46.2,42.8,29.75,SW,226,5.1,8.5,88,0.00,,,-99.99,1.0,HOBO +U30 +Weather +,2013-03-05 04:15:00,
2013-03-04 20:20:00,46.2,42.8,29.75,SW,236,5.6,8.9,87,0.00,,,-99.99,1.0,HOBO +U30 +Weather +,2013-03-05 04:20:00,
2013-03-04 20:25:00,46.1,42.7,29.75,SW,229,5.1,8.5,87,0.00,,,-99.99,1.0,HOBO +U30 +Weather +,2013-03-05 04:25:00,
2013-03-04 20:30:00,46.1,42.7,29.75,WSW,241,4.0,8.9,87,0.00,,,-99.99,1.0,HOBO +U30 +Weather +,2013-03-05 04:30:00,
2013-03-04 20:40:00,45.8,42.7,29.75,SW,232,4.0,8.5,88,0.00,,,-99.99,1.0,HOBO +U30 +Weather +,2013-03-05 04:40:00,
2013-03-04 20:55:00,45.8,42.7,29.75,SW,233,4.5,9.6,88,0.00,,,-99.99,1.0,HOBO +U30 +Weather +,2013-03-05 04:55:00,
2013-03-04 21:20:00,45.4,42.5,29.75,SW,232,1.8,5.1,89,0.00,,,-99.99,1.0,HOBO +U30 +Weather +,2013-03-05 05:20:00,
2013-03-04 21:25:00,45.3,42.5,29.75,SW,223,2.9,6.3,90,0.00,,,-99.99,1.0,HOBO +U30 +Weather +,2013-03-05 05:25:00,
2013-03-04 21:30:00,45.4,42.7,29.75,SW,229,3.4,7.4,90,0.00,,,-99.99,1.0,HOBO +U30 +Weather +,2013-03-05 05:30:00,
2013-03-04 21:35:00,45.4,42.7,29.75,SW,227,3.4,7.8,90,0.00,,,-99.99,1.0,HOBO +U30 +Weather +,2013-03-05 05:35:00,
2013-03-04 21:40:00,45.4,42.7,29.75,SW,230,2.9,6.3,90,0.00,,,-99.99,1.0,HOBO +U30 +Weather +,2013-03-05 05:40:00,
2013-03-04 21:45:00,45.3,42.7,29.75,WSW,241,2.2,6.3,90,0.00,,,-99.99,1.0,HOBO +U30 +Weather +,2013-03-05 05:45:00,
2013-03-04 21:50:00,45.2,42.6,29.75,SW,220,1.1,5.1,90,0.00,,,-99.99,1.0,HOBO +U30 +Weather +,2013-03-05 05:50:00,
2013-03-04 21:55:00,45.2,42.7,29.75,West,265,2.2,6.7,90,0.00,,,-99.99,1.0,HOBO +U30 +Weather +,2013-03-05 05:55:00,
2013-03-04 22:00:00,45.2,42.7,29.75,WSW,254,2.2,5.1,91,0.00,,,-99.99,1.0,HOBO +U30 +Weather +,2013-03-05 06:00:00,
2013-03-04 22:05:00,45.1,42.7,29.75,West,272,1.1,6.3,91,0.00,,,-99.99,1.0,HOBO +U30 +Weather +,2013-03-05 06:05:00,
2013-03-04 22:10:00,45.1,42.7,29.75,SW,236,1.8,6.3,91,0.00,,,-99.99,1.0,HOBO +U30 +Weather +,2013-03-05 06:10:00,
2013-03-04 22:15:00,45.2,42.8,29.75,WSW,251,1.1,5.1,91,0.00,,,-99.99,1.0,HOBO +U30 +Weather +,2013-03-05 06:15:00,
2013-03-04 22:25:00,45.2,42.8,29.75,WSW,257,1.8,5.1,91,0.00,,,-99.99,1.0,HOBO +U30 +Weather +,2013-03-05 06:25:00,
2013-03-04 22:30:00,45.1,42.7,29.75,SW,233,0.7,3.4,91,0.00,,,-99.99,1.0,HOBO +U30 +Weather +,2013-03-05 06:30:00,
2013-03-04 22:35:00,45.2,42.8,29.75,WSW,237,1.8,6.3,91,0.00,,,-99.99,1.0,HOBO +U30 +Weather +,2013-03-05 06:35:00,
2013-03-04 22:40:00,45.2,42.8,29.75,SW,232,1.8,7.4,91,0.00,,,-99.99,1.0,HOBO +U30 +Weather +,2013-03-05 06:40:00,
2013-03-04 22:45:00,45.1,42.7,29.75,WSW,247,0.7,5.1,91,0.00,,,-99.99,1.0,HOBO +U30 +Weather +,2013-03-05 06:45:00,
2013-03-04 22:50:00,45.0,42.6,29.75,SW,230,0.7,3.4,91,0.00,,,-99.99,1.0,HOBO +U30 +Weather +,2013-03-05 06:50:00,
2013-03-04 22:55:00,44.9,42.6,29.75,WSW,240,0.7,5.6,91,0.00,,,-99.99,1.0,HOBO +U30 +Weather +,2013-03-05 06:55:00,
2013-03-04 23:00:00,44.9,42.6,29.75,WSW,248,1.8,5.6,91,0.00,,,-99.99,1.0,HOBO +U30 +Weather +,2013-03-05 07:00:00,
2013-03-04 23:05:00,44.9,42.5,29.75,West,267,0.7,5.6,91,0.00,,,-99.99,1.0,HOBO +U30 +Weather +,2013-03-05 07:05:00,
2013-03-04 23:10:00,44.9,42.6,29.75,West,260,1.1,5.1,91,0.00,,,-99.99,1.0,HOBO +U30 +Weather +,2013-03-05 07:10:00,
2013-03-04 23:15:00,45.0,42.6,29.75,SW,232,1.8,5.1,91,0.00,,,-99.99,1.0,HOBO +U30 +Weather +,2013-03-05 07:15:00,
2013-03-04 23:20:00,44.9,42.5,29.75,SW,234,0.7,2.9,91,0.00,,,-99.99,1.0,HOBO +U30 +Weather +,2013-03-05 07:20:00,
2013-03-04 23:25:00,45.0,42.6,29.74,WSW,257,2.2,5.6,91,0.00,,,-99.99,1.0,HOBO +U30 +Weather +,2013-03-05 07:25:00,
2013-03-04 23:30:00,45.0,42.6,29.74,WSW,244,1.1,4.0,91,0.00,,,-99.99,1.0,HOBO +U30 +Weather +,2013-03-05 07:30:00,
2013-03-04 23:35:00,44.9,42.5,29.74,West,281,0.7,6.3,91,0.00,,,-99.99,1.0,HOBO +U30 +Weather +,2013-03-05 07:35:00,
2013-03-04 23:40:00,44.8,42.4,29.74,SW,227,0.0,2.9,91,0.00,,,-99.99,1.0,HOBO +U30 +Weather +,2013-03-05 07:40:00,
2013-03-04 23:45:00,44.7,42.3,29.74,SW,225,0.0,2.2,91,0.00,,,-99.99,1.0,HOBO +U30 +Weather +,2013-03-05 07:45:00,
2013-03-04 23:50:00,44.7,42.3,29.74,SW,215,0.7,4.0,91,0.00,,,-99.99,1.0,HOBO +U30 +Weather +,2013-03-05 07:50:00,
2013-03-04 23:55:00,44.8,42.4,29.74,West,277,0.0,2.2,91,0.00,,,-99.99,1.0,HOBO +U30 +Weather +,2013-03-05 07:55:00,